createdAt,value
2019-02-27T00:03:02.194Z,7.10
2019-02-27T00:07:10.482Z,7.00
2019-02-27T00:11:18.782Z,7.10
2019-02-27T00:15:27.052Z,7.10
2019-02-27T00:19:35.319Z,7.10
2019-02-27T00:23:43.572Z,7.10
2019-02-27T00:27:51.857Z,7.00
2019-02-27T00:32:00.136Z,6.90
2019-02-27T00:36:12.042Z,6.90
2019-02-27T00:40:16.724Z,6.80
2019-02-27T00:44:25.013Z,6.80
2019-02-27T00:48:33.267Z,6.80
2019-02-27T00:52:41.599Z,6.70
2019-02-27T00:56:49.897Z,6.70
2019-02-27T01:00:58.233Z,6.60
2019-02-27T01:05:09.184Z,6.60
2019-02-27T01:09:15.072Z,6.60
2019-02-27T01:13:23.329Z,6.50
2019-02-27T01:17:31.698Z,6.50
2019-02-27T01:21:40.685Z,6.50
2019-02-27T01:25:48.940Z,6.40
2019-02-27T01:29:57.248Z,6.40
2019-02-27T01:34:05.571Z,6.30
2019-02-27T01:38:13.814Z,6.30
2019-02-27T01:42:22.083Z,6.20
2019-02-27T01:46:30.389Z,6.30
2019-02-27T01:50:38.897Z,6.20
2019-02-27T01:54:48.870Z,6.20
2019-02-27T01:58:55.477Z,6.20
2019-02-27T02:03:03.736Z,6.10
2019-02-27T02:07:12.017Z,6.00
2019-02-27T02:11:20.361Z,6.00
2019-02-27T02:15:43.119Z,6.00
2019-02-27T02:22:08.865Z,6.00
2019-02-27T02:28:32.587Z,6.00
2019-02-27T02:32:52.374Z,5.80
2019-02-27T02:37:10.368Z,5.80
2019-02-27T02:41:47.995Z,5.80
2019-02-27T02:46:08.282Z,5.70
2019-02-27T02:50:29.922Z,5.70
2019-02-27T02:55:04.628Z,5.70
2019-02-27T02:59:24.827Z,5.60
2019-02-27T03:03:50.438Z,5.60
2019-02-27T03:08:06.251Z,5.60
2019-02-27T03:12:41.435Z,5.60
2019-02-27T03:17:01.524Z,5.50
2019-02-27T03:21:49.048Z,5.50
2019-02-27T03:26:07.216Z,5.50
2019-02-27T03:31:28.941Z,5.40
2019-02-27T03:35:52.976Z,5.40
2019-02-27T03:40:11.862Z,5.30
2019-02-27T03:46:06.253Z,5.30
2019-02-27T03:50:24.983Z,5.30
2019-02-27T03:54:43.430Z,5.30
2019-02-27T03:59:09.347Z,5.30
2019-02-27T04:03:57.954Z,5.20
2019-02-27T04:08:14.895Z,5.20
2019-02-27T04:12:23.189Z,5.10
2019-02-27T04:16:31.863Z,5.10
2019-02-27T04:20:40.151Z,5.10
2019-02-27T04:24:48.420Z,5.00
2019-02-27T04:28:56.638Z,5.10
2019-02-27T04:33:04.930Z,5.10
2019-02-27T04:37:13.155Z,5.10
2019-02-27T04:41:21.402Z,5.00
2019-02-27T04:45:29.623Z,5.00
2019-02-27T04:49:38.428Z,5.00
2019-02-27T04:53:46.146Z,5.00
2019-02-27T04:57:54.362Z,4.90
2019-02-27T05:02:02.601Z,4.90
2019-02-27T05:06:11.958Z,4.90
2019-02-27T05:10:19.114Z,4.90
2019-02-27T05:14:28.059Z,4.90
2019-02-27T05:18:35.619Z,4.80
2019-02-27T05:22:43.854Z,4.70
2019-02-27T05:26:52.093Z,4.70
2019-02-27T05:31:00.395Z,4.70
2019-02-27T05:35:08.645Z,4.70
2019-02-27T05:39:17.298Z,4.70
2019-02-27T05:43:25.241Z,4.70
2019-02-27T05:47:33.982Z,4.70
2019-02-27T05:55:50.246Z,4.60
2019-02-27T06:00:02.348Z,4.60
2019-02-27T06:04:06.729Z,4.50
2019-02-27T06:08:14.990Z,4.50
2019-02-27T06:12:23.196Z,4.50
2019-02-27T06:16:31.450Z,4.50
2019-02-27T06:20:42.001Z,4.20
2019-02-27T06:24:47.970Z,4.20
2019-02-27T06:28:56.245Z,4.30
2019-02-27T06:33:04.461Z,4.30
2019-02-27T06:37:15.357Z,4.40
2019-02-27T06:41:20.982Z,4.40
2019-02-27T06:45:29.222Z,4.40
2019-02-27T06:49:37.451Z,4.30
2019-02-27T06:53:46.077Z,4.30
2019-02-27T06:57:54.009Z,4.30
2019-02-27T07:02:02.260Z,4.30
2019-02-27T07:06:10.534Z,4.30
2019-02-27T07:10:19.928Z,4.30
2019-02-27T07:14:27.164Z,4.40
2019-02-27T07:18:36.481Z,4.40
2019-02-27T07:22:46.581Z,4.50
2019-02-27T07:26:52.018Z,4.60
2019-02-27T07:31:00.267Z,4.60
2019-02-27T07:35:08.602Z,4.60
2019-02-27T07:39:16.841Z,4.60
2019-02-27T07:43:25.066Z,4.70
2019-02-27T07:47:33.311Z,4.90
2019-02-27T07:51:41.636Z,5.00
2019-02-27T07:55:49.944Z,5.20
2019-02-27T07:59:58.198Z,5.40
2019-02-27T08:04:06.441Z,5.60
2019-02-27T08:08:14.774Z,5.70
2019-02-27T08:12:23.026Z,5.90
2019-02-27T08:16:31.282Z,6.10
2019-02-27T08:20:39.571Z,6.40
2019-02-27T08:24:47.849Z,6.70
2019-02-27T08:28:56.093Z,6.90
2019-02-27T08:33:08.207Z,7.20
2019-02-27T08:37:12.574Z,7.50
2019-02-27T08:41:20.802Z,7.80
2019-02-27T08:45:29.027Z,8.10
2019-02-27T08:49:37.253Z,8.40
2019-02-27T08:53:45.538Z,8.70
2019-02-27T08:57:56.922Z,9.00
2019-02-27T09:02:02.004Z,9.30
2019-02-27T09:06:10.264Z,9.50
2019-02-27T09:14:26.558Z,10.00
2019-02-27T09:18:36.492Z,10.30
2019-02-27T09:22:43.019Z,10.50
2019-02-27T09:26:51.292Z,10.70
2019-02-27T09:31:03.321Z,11.00
2019-02-27T09:35:08.472Z,11.20
2019-02-27T09:39:16.706Z,11.40
2019-02-27T09:43:27.321Z,11.50
2019-02-27T09:47:33.290Z,11.60
2019-02-27T09:51:41.550Z,11.70
2019-02-27T09:55:53.518Z,11.70
2019-02-27T09:59:58.054Z,11.70
2019-02-27T10:04:06.260Z,11.70
2019-02-27T10:08:14.542Z,11.60
2019-02-27T10:12:27.101Z,11.70
2019-02-27T10:16:34.598Z,11.70
2019-02-27T10:20:39.429Z,11.90
2019-02-27T10:24:47.694Z,12.00
2019-02-27T10:28:55.954Z,12.20
2019-02-27T10:33:04.189Z,12.50
2019-02-27T10:37:13.308Z,12.70
2019-02-27T10:41:20.751Z,13.00
2019-02-27T10:45:29.037Z,13.20
2019-02-27T10:49:38.319Z,13.50
2019-02-27T10:53:45.586Z,13.80
2019-02-27T10:57:53.818Z,14.00
2019-02-27T11:02:02.063Z,14.30
2019-02-27T11:06:10.347Z,14.50
2019-02-27T11:10:18.565Z,14.80
2019-02-27T11:14:31.636Z,14.90
2019-02-27T11:18:35.743Z,15.10
2019-02-27T11:22:43.989Z,15.20
2019-02-27T11:26:52.202Z,15.50
2019-02-27T11:31:00.492Z,15.80
2019-02-27T11:35:08.731Z,15.90
2019-02-27T11:39:16.973Z,16.00
2019-02-27T11:43:25.195Z,16.10
2019-02-27T11:47:33.477Z,16.30
2019-02-27T11:51:41.692Z,16.40
2019-02-27T11:55:49.922Z,16.50
2019-02-27T11:59:58.130Z,16.60
2019-02-27T12:04:06.409Z,16.70
2019-02-27T12:08:14.680Z,16.90
2019-02-27T12:12:24.133Z,17.00
2019-02-27T12:16:31.201Z,17.10
2019-02-27T12:20:39.498Z,17.20
2019-02-27T12:24:50.348Z,17.30
2019-02-27T12:28:55.966Z,17.40
2019-02-27T12:33:04.242Z,17.50
2019-02-27T12:37:23.081Z,17.60
2019-02-27T12:41:20.795Z,17.70
2019-02-27T12:45:29.828Z,17.80
2019-02-27T12:49:37.368Z,17.80
2019-02-27T12:53:45.879Z,17.70
2019-02-27T12:57:54.095Z,17.70
2019-02-27T13:02:08.353Z,17.70
2019-02-27T13:06:10.632Z,17.70
2019-02-27T13:10:20.078Z,17.50
2019-02-27T13:14:28.330Z,17.60
2019-02-27T13:18:36.554Z,17.80
2019-02-27T13:22:44.765Z,17.70
2019-02-27T13:26:52.998Z,17.60
2019-02-27T13:31:01.255Z,17.60
2019-02-27T13:35:09.518Z,17.70
2019-02-27T13:39:17.770Z,17.70
2019-02-27T13:43:27.149Z,17.60
2019-02-27T13:47:34.222Z,17.70
2019-02-27T13:51:42.472Z,17.80
2019-02-27T13:55:50.729Z,17.70
2019-02-27T13:59:58.913Z,17.80
2019-02-27T14:04:07.191Z,17.80
2019-02-27T14:08:15.398Z,17.90
2019-02-27T14:12:23.650Z,18.00
2019-02-27T14:16:34.490Z,18.10
2019-02-27T14:20:40.187Z,18.10
2019-02-27T14:24:48.387Z,18.00
2019-02-27T14:28:56.613Z,17.90
2019-02-27T14:33:04.813Z,18.00
2019-02-27T14:37:16.263Z,18.00
2019-02-27T14:41:21.382Z,18.00
2019-02-27T14:45:29.641Z,18.00
2019-02-27T14:49:37.850Z,18.00
2019-02-27T14:53:46.119Z,18.10
2019-02-27T14:57:54.357Z,18.10
2019-02-27T15:02:02.630Z,18.10
2019-02-27T15:06:10.874Z,18.00
2019-02-27T15:10:19.186Z,18.00
2019-02-27T15:14:27.414Z,18.00
2019-02-27T15:18:35.650Z,18.00
2019-02-27T15:22:43.957Z,17.90
2019-02-27T15:26:52.281Z,17.80
2019-02-27T15:31:00.490Z,17.70
2019-02-27T15:35:08.898Z,17.60
2019-02-27T15:39:20.214Z,17.40
2019-02-27T15:43:25.421Z,17.40
2019-02-27T15:47:33.855Z,17.20
2019-02-27T15:51:41.962Z,17.10
2019-02-27T15:55:50.210Z,17.00
2019-02-27T15:59:58.427Z,17.00
2019-02-27T16:04:06.809Z,17.00
2019-02-27T16:08:15.414Z,16.90
2019-02-27T16:12:25.818Z,17.00
2019-02-27T16:16:31.561Z,16.90
2019-02-27T16:20:39.827Z,16.80
2019-02-27T16:24:48.063Z,16.80
2019-02-27T16:28:56.330Z,16.80
2019-02-27T16:33:06.884Z,16.70
2019-02-27T16:37:12.913Z,16.70
2019-02-27T16:41:21.173Z,16.70
2019-02-27T16:50:28.339Z,16.50
2019-02-27T16:54:36.433Z,16.40
2019-02-27T16:58:44.650Z,16.30
2019-02-27T17:02:52.917Z,16.10
2019-02-27T17:07:01.174Z,15.90
2019-02-27T17:11:09.425Z,15.70
2019-02-27T17:15:17.618Z,15.60
2019-02-27T17:19:25.881Z,15.40
2019-02-27T17:23:34.166Z,15.30
2019-02-27T17:27:42.420Z,15.10
2019-02-27T17:31:55.437Z,14.90
2019-02-27T17:35:59.380Z,14.70
2019-02-27T17:40:08.061Z,14.60
2019-02-27T17:44:16.267Z,14.40
2019-02-27T17:48:24.469Z,14.20
2019-02-27T17:52:32.766Z,14.00
2019-02-27T17:56:41.043Z,13.90
2019-02-27T18:00:51.122Z,13.80
2019-02-27T18:04:57.938Z,13.70
2019-02-27T18:09:06.406Z,13.50
2019-02-27T18:13:14.663Z,13.40
2019-02-27T18:17:22.914Z,13.30
2019-02-27T18:21:33.872Z,13.20
2019-02-27T18:25:42.176Z,13.10
2019-02-27T18:29:47.785Z,13.00
2019-02-27T18:33:55.997Z,12.90
2019-02-27T18:38:04.252Z,12.80
2019-02-27T18:42:12.597Z,12.70
2019-02-27T18:46:24.480Z,12.60
2019-02-27T18:50:29.068Z,12.50
2019-02-27T18:54:37.347Z,12.40
2019-02-27T18:58:45.607Z,12.30
2019-02-27T19:02:54.370Z,12.30
2019-02-27T19:07:02.619Z,12.20
2019-02-27T19:11:12.847Z,12.00
2019-02-27T19:15:21.939Z,11.90
2019-02-27T19:19:28.202Z,11.90
2019-02-27T19:23:36.437Z,11.80
2019-02-27T19:27:44.705Z,11.70
2019-02-27T19:31:52.902Z,11.70
2019-02-27T19:36:02.750Z,11.60
2019-02-27T19:40:11.493Z,11.50
2019-02-27T19:44:19.725Z,11.40
2019-02-27T19:48:28.966Z,11.30
2019-02-27T19:52:36.231Z,11.20
2019-02-27T19:56:44.490Z,11.20
2019-02-27T20:00:52.742Z,11.10
2019-02-27T20:05:00.988Z,11.10
2019-02-27T20:09:09.329Z,11.00
2019-02-27T20:13:17.590Z,10.90
2019-02-27T20:17:26.643Z,10.80
2019-02-27T20:21:34.107Z,10.80
2019-02-27T20:25:44.154Z,10.80
2019-02-27T20:29:50.676Z,10.70
2019-02-27T20:33:58.946Z,10.70
2019-02-27T20:38:07.185Z,10.60
2019-02-27T20:42:15.434Z,10.50
2019-02-27T20:46:24.566Z,10.40
2019-02-27T20:50:36.465Z,10.30
2019-02-27T20:54:44.703Z,10.20
2019-02-27T20:58:52.963Z,10.30
2019-02-27T21:03:02.603Z,10.40
2019-02-27T21:07:09.542Z,10.30
2019-02-27T21:11:17.801Z,10.20
2019-02-27T21:15:26.008Z,10.20
2019-02-27T21:19:37.250Z,10.10
2019-02-27T21:23:42.539Z,10.00
2019-02-27T21:27:50.789Z,9.90
2019-02-27T21:32:01.594Z,9.90
2019-02-27T21:36:07.338Z,9.80
2019-02-27T21:40:15.565Z,9.80
2019-02-27T21:44:25.736Z,9.80
2019-02-27T21:48:32.069Z,9.70
2019-02-27T21:52:40.290Z,9.60
2019-02-27T21:56:49.171Z,9.60
2019-02-27T22:00:56.776Z,9.60
2019-02-27T22:05:05.226Z,9.50
2019-02-27T22:13:28.914Z,9.30
2019-02-27T22:17:29.784Z,9.30
2019-02-27T22:21:38.046Z,9.20
2019-02-27T22:25:46.449Z,9.10
2019-02-27T22:29:55.931Z,9.10
2019-02-27T22:34:02.967Z,9.10
2019-02-27T22:38:11.181Z,9.00
2019-02-27T22:42:19.452Z,9.00
2019-02-27T22:46:27.724Z,8.90
2019-02-27T22:50:38.406Z,8.90
2019-02-27T22:54:44.262Z,8.80
2019-02-27T22:58:52.665Z,8.70
2019-02-27T23:03:00.878Z,8.60
2019-02-27T23:07:09.187Z,8.60
2019-02-27T23:11:17.406Z,8.60
2019-02-27T23:15:25.630Z,8.60
2019-02-27T23:19:33.841Z,8.50
2019-02-27T23:23:42.085Z,8.50
2019-02-27T23:27:50.359Z,8.40
2019-02-27T23:31:58.561Z,8.30
2019-02-27T23:36:07.621Z,8.30
2019-02-27T23:40:17.531Z,8.20
2019-02-27T23:44:24.177Z,8.20
2019-02-27T23:48:35.818Z,8.10
2019-02-27T23:52:40.694Z,8.10
2019-02-27T23:56:51.905Z,8.10
